createdAt,value
2022-10-31T00:00:51.099Z,10.60
2022-10-31T00:03:20.061Z,10.60
2022-10-31T00:05:49.694Z,10.50
2022-10-31T00:08:18.972Z,10.50
2022-10-31T00:10:47.848Z,10.60
2022-10-31T00:13:17.338Z,10.50
2022-10-31T00:15:45.622Z,10.40
2022-10-31T00:18:15.255Z,10.40
2022-10-31T00:20:43.626Z,10.40
2022-10-31T00:23:13.059Z,10.50
2022-10-31T00:25:42.115Z,10.40
2022-10-31T00:28:12.879Z,10.40
2022-10-31T00:30:41.138Z,10.40
2022-10-31T00:33:09.378Z,10.40
2022-10-31T00:35:39.039Z,10.30
2022-10-31T00:38:07.283Z,10.40
2022-10-31T00:40:35.756Z,10.30
2022-10-31T00:43:04.554Z,10.20
2022-10-31T00:45:32.965Z,10.20
2022-10-31T00:48:01.425Z,10.30
2022-10-31T00:50:30.048Z,10.30
2022-10-31T00:53:00.594Z,10.30
2022-10-31T00:55:28.991Z,10.30
2022-10-31T00:57:57.731Z,10.40
2022-10-31T01:00:26.282Z,10.30
2022-10-31T01:02:54.470Z,10.30
2022-10-31T01:05:22.835Z,10.20
2022-10-31T01:07:51.103Z,10.10
2022-10-31T01:10:20.843Z,10.10
2022-10-31T01:12:50.910Z,10.10
2022-10-31T01:15:21.227Z,10.00
2022-10-31T01:17:49.902Z,10.10
2022-10-31T01:20:18.577Z,10.00
2022-10-31T01:22:46.925Z,10.00
2022-10-31T01:25:15.105Z,10.00
2022-10-31T01:27:44.767Z,10.00
2022-10-31T01:30:13.910Z,9.90
2022-10-31T01:32:42.050Z,9.90
2022-10-31T01:35:10.479Z,10.00
2022-10-31T01:37:38.669Z,10.00
2022-10-31T01:40:08.289Z,9.90
2022-10-31T01:42:36.545Z,9.90
2022-10-31T01:45:07.403Z,9.90
2022-10-31T01:47:43.268Z,9.90
2022-10-31T01:50:28.425Z,9.90
2022-10-31T01:52:57.834Z,9.80
2022-10-31T01:55:30.317Z,9.70
2022-10-31T01:58:04.012Z,9.70
2022-10-31T02:00:34.147Z,9.70
2022-10-31T02:03:02.757Z,9.60
2022-10-31T02:05:32.582Z,9.60
2022-10-31T02:08:04.715Z,9.50
2022-10-31T02:10:35.229Z,9.60
2022-10-31T02:13:06.126Z,9.50
2022-10-31T02:15:37.166Z,9.50
2022-10-31T02:18:06.366Z,9.40
2022-10-31T02:20:40.138Z,9.50
2022-10-31T02:23:30.416Z,9.40
2022-10-31T02:26:16.679Z,9.40
2022-10-31T02:29:03.637Z,9.40
2022-10-31T02:31:42.449Z,9.50
2022-10-31T02:34:19.795Z,9.50
2022-10-31T02:36:55.407Z,9.50
2022-10-31T02:39:28.000Z,9.50
2022-10-31T02:42:09.208Z,9.50
2022-10-31T02:44:42.608Z,9.50
2022-10-31T02:47:19.145Z,9.40
2022-10-31T02:49:55.954Z,9.40
2022-10-31T02:52:27.363Z,9.40
2022-10-31T02:54:55.991Z,9.40
2022-10-31T02:57:29.990Z,9.30
2022-10-31T03:00:03.522Z,9.30
2022-10-31T03:02:46.247Z,9.30
2022-10-31T03:05:24.213Z,9.30
2022-10-31T03:08:00.846Z,9.30
2022-10-31T03:10:38.070Z,9.20
2022-10-31T03:13:15.477Z,9.20
2022-10-31T03:15:47.137Z,9.20
2022-10-31T03:18:23.829Z,9.10
2022-10-31T03:20:58.250Z,9.20
2022-10-31T03:23:27.519Z,9.00
2022-10-31T03:25:56.915Z,9.00
2022-10-31T03:28:30.624Z,9.10
2022-10-31T03:31:02.332Z,9.10
2022-10-31T03:33:37.585Z,9.20
2022-10-31T03:36:10.615Z,9.10
2022-10-31T03:38:40.144Z,9.20
2022-10-31T03:41:12.988Z,9.20
2022-10-31T03:43:50.154Z,9.20
2022-10-31T03:46:18.467Z,9.20
2022-10-31T03:48:48.477Z,9.20
2022-10-31T03:51:22.162Z,9.20
2022-10-31T03:53:57.972Z,9.10
2022-10-31T03:56:35.771Z,9.10
2022-10-31T03:59:09.827Z,8.90
2022-10-31T04:01:43.433Z,8.90
2022-10-31T04:04:13.615Z,8.90
2022-10-31T04:06:44.396Z,8.90
2022-10-31T04:09:13.264Z,8.80
2022-10-31T04:11:48.002Z,8.90
2022-10-31T04:14:16.505Z,8.80
2022-10-31T04:16:45.954Z,8.70
2022-10-31T04:19:16.842Z,8.70
2022-10-31T04:21:45.363Z,8.70
2022-10-31T04:24:13.865Z,8.70
2022-10-31T04:26:42.937Z,8.70
2022-10-31T04:29:11.075Z,8.70
2022-10-31T04:31:39.234Z,8.80
2022-10-31T04:34:08.431Z,8.90
2022-10-31T04:36:38.040Z,8.90
2022-10-31T04:39:06.324Z,8.90
2022-10-31T04:41:34.550Z,8.90
2022-10-31T04:44:02.707Z,8.90
2022-10-31T04:46:30.988Z,8.90
2022-10-31T04:48:59.263Z,8.90
2022-10-31T04:51:27.468Z,9.00
2022-10-31T04:53:57.412Z,8.90
2022-10-31T04:56:25.719Z,8.80
2022-10-31T04:58:53.963Z,8.80
2022-10-31T05:01:22.323Z,8.70
2022-10-31T05:03:50.658Z,8.80
2022-10-31T05:06:18.882Z,8.70
2022-10-31T05:08:47.094Z,8.70
2022-10-31T05:11:16.829Z,8.70
2022-10-31T05:13:44.980Z,8.70
2022-10-31T05:16:13.109Z,8.60
2022-10-31T05:18:41.525Z,8.60
2022-10-31T05:21:09.833Z,8.60
2022-10-31T05:23:38.038Z,8.60
2022-10-31T05:26:06.622Z,8.60
2022-10-31T05:28:37.514Z,8.70
2022-10-31T05:31:17.058Z,8.60
2022-10-31T05:33:45.218Z,8.60
2022-10-31T05:36:13.437Z,8.60
2022-10-31T05:38:41.608Z,8.60
2022-10-31T05:41:10.405Z,8.50
2022-10-31T05:43:39.974Z,8.40
2022-10-31T05:46:08.344Z,8.20
2022-10-31T05:48:36.491Z,8.10
2022-10-31T05:51:04.757Z,8.10
2022-10-31T05:53:33.002Z,8.10
2022-10-31T05:56:01.193Z,8.20
2022-10-31T05:58:29.318Z,8.20
2022-10-31T06:00:59.027Z,8.30
2022-10-31T06:03:27.273Z,8.30
2022-10-31T06:05:55.598Z,8.40
2022-10-31T06:08:23.918Z,8.40
2022-10-31T06:10:54.047Z,8.30
2022-10-31T06:13:22.293Z,8.30
2022-10-31T06:15:50.557Z,8.30
2022-10-31T06:18:20.143Z,8.10
2022-10-31T06:20:48.885Z,8.20
2022-10-31T06:23:17.239Z,8.20
2022-10-31T06:25:45.523Z,8.30
2022-10-31T06:28:13.702Z,8.00
2022-10-31T06:30:42.053Z,8.10
2022-10-31T06:33:10.262Z,8.00
2022-10-31T06:35:39.963Z,8.10
2022-10-31T06:38:08.659Z,8.20
2022-10-31T06:40:37.378Z,8.20
2022-10-31T06:43:05.748Z,8.30
2022-10-31T06:45:34.181Z,8.30
2022-10-31T06:48:18.577Z,8.30
2022-10-31T06:50:48.814Z,8.40
2022-10-31T06:53:17.500Z,8.40
2022-10-31T06:55:48.620Z,8.40
2022-10-31T06:58:17.419Z,8.40
2022-10-31T07:00:45.904Z,8.40
2022-10-31T07:03:16.587Z,8.40
2022-10-31T07:05:45.638Z,8.50
2022-10-31T07:08:16.750Z,8.70
2022-10-31T07:10:53.238Z,9.00
2022-10-31T07:13:25.750Z,8.90
2022-10-31T07:15:55.713Z,9.10
2022-10-31T07:18:24.303Z,9.20
2022-10-31T07:20:55.474Z,9.40
2022-10-31T07:23:25.332Z,9.60
2022-10-31T07:25:57.685Z,9.60
2022-10-31T07:28:26.658Z,9.90
2022-10-31T07:30:55.903Z,11.10
2022-10-31T07:33:24.656Z,12.90
2022-10-31T07:35:52.901Z,13.60
2022-10-31T07:38:21.231Z,14.00
2022-10-31T07:40:54.370Z,14.70
2022-10-31T07:43:23.675Z,15.30
2022-10-31T07:45:53.242Z,14.80
2022-10-31T07:48:22.101Z,14.50
2022-10-31T07:50:51.230Z,13.00
2022-10-31T07:53:20.790Z,11.80
2022-10-31T07:55:49.491Z,12.30
2022-10-31T07:58:20.812Z,12.20
2022-10-31T08:00:50.042Z,11.70
2022-10-31T08:03:20.912Z,11.10
2022-10-31T08:05:49.585Z,10.90
2022-10-31T08:08:18.556Z,10.90
2022-10-31T08:10:46.805Z,10.60
2022-10-31T08:13:16.231Z,10.70
2022-10-31T08:15:51.496Z,11.80
2022-10-31T08:18:20.201Z,11.60
2022-10-31T08:20:48.397Z,11.30
2022-10-31T08:23:17.042Z,10.90
2022-10-31T08:25:48.086Z,11.20
2022-10-31T08:28:17.429Z,11.50
2022-10-31T08:30:48.486Z,11.90
2022-10-31T08:33:18.832Z,12.20
2022-10-31T08:35:48.718Z,11.90
2022-10-31T08:38:16.982Z,11.70
2022-10-31T08:40:45.345Z,11.70
2022-10-31T08:43:15.743Z,11.90
2022-10-31T08:45:45.033Z,11.90
2022-10-31T08:48:17.336Z,12.30
2022-10-31T08:50:46.612Z,12.40
2022-10-31T08:53:16.518Z,12.20
2022-10-31T08:55:46.162Z,12.10
2022-10-31T08:58:16.761Z,12.30
2022-10-31T09:00:45.983Z,12.30
2022-10-31T09:03:18.844Z,12.50
2022-10-31T09:05:47.970Z,12.40
2022-10-31T09:08:17.781Z,12.40
2022-10-31T09:10:46.345Z,12.90
2022-10-31T09:13:16.033Z,12.70
2022-10-31T09:15:46.420Z,12.60
2022-10-31T09:18:19.509Z,12.50
2022-10-31T09:20:49.607Z,12.70
2022-10-31T09:23:19.445Z,12.60
2022-10-31T09:25:50.723Z,12.40
2022-10-31T09:28:21.693Z,12.40
2022-10-31T09:30:51.193Z,12.30
2022-10-31T09:33:21.484Z,12.40
2022-10-31T09:35:50.025Z,12.40
2022-10-31T09:38:20.316Z,12.60
2022-10-31T09:40:51.232Z,12.80
2022-10-31T09:43:27.407Z,12.80
2022-10-31T09:46:03.933Z,12.50
2022-10-31T09:48:51.590Z,12.60
2022-10-31T09:51:23.131Z,12.70
2022-10-31T09:53:53.989Z,12.80
2022-10-31T09:56:23.795Z,12.90
2022-10-31T09:58:56.347Z,12.90
2022-10-31T10:01:43.164Z,13.00
2022-10-31T10:04:36.233Z,12.80
2022-10-31T10:07:10.445Z,12.70
2022-10-31T10:09:38.996Z,12.70
2022-10-31T10:12:16.127Z,13.20
2022-10-31T10:15:03.557Z,13.30
2022-10-31T10:17:40.695Z,13.20
2022-10-31T10:20:25.811Z,13.40
2022-10-31T10:23:03.784Z,13.40
2022-10-31T10:25:40.656Z,13.30
2022-10-31T10:28:19.154Z,13.40
2022-10-31T10:30:51.061Z,13.70
2022-10-31T10:33:24.154Z,13.90
2022-10-31T10:35:57.830Z,14.10
2022-10-31T10:38:33.537Z,14.30
2022-10-31T10:41:04.119Z,14.50
2022-10-31T10:43:36.230Z,14.70
2022-10-31T10:46:36.539Z,14.90
2022-10-31T10:49:14.322Z,14.90
2022-10-31T10:54:56.645Z,14.90
2022-10-31T10:57:35.511Z,14.90
2022-10-31T11:00:18.656Z,14.90
2022-10-31T11:02:48.941Z,15.00
2022-10-31T11:05:28.109Z,15.20
2022-10-31T11:07:57.760Z,15.10
2022-10-31T11:10:26.424Z,15.10
2022-10-31T11:13:06.614Z,15.10
2022-10-31T11:15:38.650Z,15.10
2022-10-31T11:18:07.886Z,15.10
2022-10-31T11:20:38.996Z,15.00
2022-10-31T11:23:20.641Z,15.00
2022-10-31T11:25:54.048Z,14.80
2022-10-31T11:28:22.516Z,14.90
2022-10-31T11:30:54.109Z,14.60
2022-10-31T11:33:28.876Z,14.70
2022-10-31T11:35:58.474Z,14.80
2022-10-31T11:38:35.735Z,15.00
2022-10-31T11:41:12.985Z,14.90
2022-10-31T11:43:49.006Z,15.00
2022-10-31T11:46:26.628Z,15.00
2022-10-31T11:48:57.449Z,15.00
2022-10-31T11:51:28.993Z,15.10
2022-10-31T11:54:03.019Z,15.10
2022-10-31T11:56:41.874Z,15.20
2022-10-31T11:59:20.703Z,15.30
2022-10-31T12:01:50.539Z,15.40
2022-10-31T12:04:19.513Z,15.30
2022-10-31T12:06:51.617Z,15.40
2022-10-31T12:09:26.197Z,15.70
2022-10-31T12:12:08.760Z,15.70
2022-10-31T12:14:44.735Z,15.80
2022-10-31T12:17:18.031Z,15.80
2022-10-31T12:20:00.666Z,15.80
2022-10-31T12:22:50.430Z,15.70
2022-10-31T12:25:29.645Z,15.70
2022-10-31T12:28:18.206Z,15.70
2022-10-31T12:31:01.411Z,15.80
2022-10-31T12:33:43.386Z,16.00
2022-10-31T12:36:26.032Z,16.00
2022-10-31T12:39:08.211Z,16.00
2022-10-31T12:41:49.160Z,16.10
2022-10-31T12:44:44.505Z,16.00
2022-10-31T12:47:33.706Z,16.20
2022-10-31T12:50:14.708Z,16.30
2022-10-31T12:52:56.351Z,16.20
2022-10-31T12:55:40.652Z,16.20
2022-10-31T12:58:17.694Z,16.30
2022-10-31T13:00:51.126Z,16.40
2022-10-31T13:03:29.014Z,16.40
2022-10-31T13:06:01.341Z,16.40
2022-10-31T13:08:37.409Z,16.30
2022-10-31T13:11:12.370Z,16.30
2022-10-31T13:13:46.273Z,16.20
2022-10-31T13:16:18.757Z,16.30
2022-10-31T13:18:50.686Z,16.10
2022-10-31T13:21:24.151Z,16.10
2022-10-31T13:23:53.545Z,16.10
2022-10-31T13:26:38.920Z,16.10
2022-10-31T13:29:20.494Z,16.20
2022-10-31T13:31:49.320Z,16.10
2022-10-31T13:34:26.058Z,16.20
2022-10-31T13:37:03.696Z,16.20
2022-10-31T13:39:48.848Z,16.20
2022-10-31T13:42:25.235Z,16.20
2022-10-31T13:44:54.905Z,16.30
2022-10-31T13:47:26.827Z,16.30
2022-10-31T13:50:06.897Z,16.30
2022-10-31T13:52:35.247Z,16.30
2022-10-31T13:55:03.361Z,16.30
2022-10-31T13:57:40.073Z,16.30
2022-10-31T14:00:26.840Z,16.20
2022-10-31T14:02:59.038Z,16.20
2022-10-31T14:05:29.915Z,16.30
2022-10-31T14:08:00.043Z,16.30
2022-10-31T14:10:31.001Z,16.30
2022-10-31T14:13:09.913Z,16.40
2022-10-31T14:15:56.707Z,16.40
2022-10-31T14:18:27.462Z,16.20
2022-10-31T14:20:56.387Z,16.20
2022-10-31T14:23:39.128Z,16.10
2022-10-31T14:26:22.249Z,16.10
2022-10-31T14:28:51.974Z,16.10
2022-10-31T14:31:40.061Z,16.00
2022-10-31T14:34:24.070Z,16.00
2022-10-31T14:37:07.787Z,16.10
2022-10-31T14:39:47.426Z,16.10
2022-10-31T14:42:29.887Z,16.00
2022-10-31T14:45:25.717Z,15.90
2022-10-31T14:48:08.017Z,15.80
2022-10-31T14:50:46.805Z,15.80
2022-10-31T14:53:20.789Z,15.80
2022-10-31T14:55:52.350Z,15.70
2022-10-31T14:58:23.538Z,15.70
2022-10-31T15:00:56.421Z,15.70
2022-10-31T15:03:32.351Z,15.60
2022-10-31T15:06:05.641Z,15.60
2022-10-31T15:08:36.581Z,15.50
2022-10-31T15:11:15.832Z,15.50
2022-10-31T15:13:45.870Z,15.60
2022-10-31T15:16:16.442Z,15.50
2022-10-31T15:18:54.251Z,15.50
2022-10-31T15:21:24.724Z,15.50
2022-10-31T15:23:55.226Z,15.50
2022-10-31T15:26:25.823Z,15.50
2022-10-31T15:29:03.197Z,15.60
2022-10-31T15:31:32.230Z,15.60
2022-10-31T15:34:09.232Z,15.50
2022-10-31T15:36:38.765Z,15.40
2022-10-31T15:39:07.142Z,15.40
2022-10-31T15:41:40.329Z,15.40
2022-10-31T15:44:17.446Z,15.30
2022-10-31T15:46:46.159Z,15.30
2022-10-31T15:49:29.049Z,15.20
2022-10-31T15:54:27.550Z,15.20
2022-10-31T15:56:56.440Z,15.10
2022-10-31T15:59:27.608Z,15.00
2022-10-31T16:02:03.007Z,14.90
2022-10-31T16:04:33.420Z,14.90
2022-10-31T16:07:03.747Z,14.80
2022-10-31T16:09:32.053Z,14.80
2022-10-31T16:12:01.291Z,14.70
2022-10-31T16:14:33.158Z,14.60
2022-10-31T16:17:03.709Z,14.60
2022-10-31T16:19:36.171Z,14.60
2022-10-31T16:22:08.387Z,14.60
2022-10-31T16:24:48.347Z,14.60
2022-10-31T16:27:24.497Z,14.60
2022-10-31T16:29:53.526Z,14.60
2022-10-31T16:32:35.301Z,14.60
2022-10-31T16:35:27.614Z,14.60
2022-10-31T16:37:57.595Z,14.50
2022-10-31T16:40:26.363Z,14.40
2022-10-31T16:42:55.308Z,14.40
2022-10-31T16:45:26.048Z,14.40
2022-10-31T16:47:54.335Z,14.40
2022-10-31T16:50:25.895Z,14.30
2022-10-31T16:53:12.893Z,14.30
2022-10-31T16:55:46.508Z,14.30
2022-10-31T16:58:23.160Z,14.20
2022-10-31T17:00:52.113Z,14.20
2022-10-31T17:03:20.775Z,14.10
2022-10-31T17:05:50.956Z,13.90
2022-10-31T17:08:19.499Z,13.90
2022-10-31T17:10:50.030Z,13.90
2022-10-31T17:13:20.962Z,13.90
2022-10-31T17:15:52.127Z,13.90
2022-10-31T17:18:26.888Z,13.90
2022-10-31T17:21:00.361Z,13.80
2022-10-31T17:23:29.509Z,13.80
2022-10-31T17:25:57.948Z,13.70
2022-10-31T17:28:26.902Z,13.70
2022-10-31T17:30:58.514Z,13.70
2022-10-31T17:33:26.993Z,13.60
2022-10-31T17:35:55.553Z,13.60
2022-10-31T17:38:25.571Z,13.50
2022-10-31T17:40:54.077Z,13.60
2022-10-31T17:43:27.291Z,13.50
2022-10-31T17:45:55.529Z,13.60
2022-10-31T17:48:23.876Z,13.50
2022-10-31T17:50:52.193Z,13.50
2022-10-31T17:53:20.920Z,13.40
2022-10-31T17:55:51.043Z,13.40
2022-10-31T17:58:19.525Z,13.30
2022-10-31T18:00:50.478Z,13.30
2022-10-31T18:03:19.758Z,13.30
2022-10-31T18:05:54.436Z,13.30
2022-10-31T18:08:27.489Z,13.30
2022-10-31T18:10:59.989Z,13.30
2022-10-31T18:13:28.918Z,13.20
2022-10-31T18:15:57.614Z,13.20
2022-10-31T18:18:26.332Z,13.20
2022-10-31T18:20:58.073Z,13.30
2022-10-31T18:23:26.480Z,13.50
2022-10-31T18:25:57.029Z,13.60
2022-10-31T18:28:26.025Z,13.60
2022-10-31T18:30:54.432Z,13.60
2022-10-31T18:33:22.744Z,13.70
2022-10-31T18:35:51.107Z,13.70
2022-10-31T18:38:19.563Z,13.70
2022-10-31T18:40:48.262Z,13.80
2022-10-31T18:43:18.221Z,13.80
2022-10-31T18:45:48.656Z,13.80
2022-10-31T18:48:18.494Z,13.80
2022-10-31T18:50:47.053Z,13.80
2022-10-31T18:53:15.392Z,13.60
2022-10-31T18:55:47.440Z,13.40
2022-10-31T18:58:20.830Z,13.30
2022-10-31T19:00:49.613Z,13.30
2022-10-31T19:03:23.299Z,13.30
2022-10-31T19:05:56.136Z,13.20
2022-10-31T19:08:24.577Z,13.20
2022-10-31T19:10:52.861Z,13.10
2022-10-31T19:13:27.405Z,13.10
2022-10-31T19:15:55.768Z,12.90
2022-10-31T19:18:24.166Z,12.80
2022-10-31T19:20:52.650Z,12.70
2022-10-31T19:23:20.939Z,12.70
2022-10-31T19:25:49.276Z,12.80
2022-10-31T19:28:17.732Z,12.80
2022-10-31T19:30:55.691Z,12.90
2022-10-31T19:33:29.495Z,12.90
2022-10-31T19:36:01.205Z,12.90
2022-10-31T19:38:29.685Z,12.90
2022-10-31T19:40:59.074Z,12.90
2022-10-31T19:43:29.279Z,12.90
2022-10-31T19:46:01.592Z,12.90
2022-10-31T19:48:30.082Z,12.90
2022-10-31T19:51:03.425Z,12.90
2022-10-31T19:53:32.372Z,12.80
2022-10-31T19:56:01.223Z,12.70
2022-10-31T19:58:30.262Z,12.70
2022-10-31T20:01:00.050Z,12.50
2022-10-31T20:03:28.537Z,12.50
2022-10-31T20:05:56.844Z,12.50
2022-10-31T20:08:25.100Z,12.40
2022-10-31T20:10:57.272Z,12.40
2022-10-31T20:13:26.368Z,12.30
2022-10-31T20:15:59.274Z,12.30
2022-10-31T20:18:29.684Z,12.20
2022-10-31T20:21:04.974Z,12.30
2022-10-31T20:23:33.842Z,12.20
2022-10-31T20:26:02.515Z,12.10
2022-10-31T20:28:32.225Z,12.10
2022-10-31T20:31:01.427Z,12.00
2022-10-31T20:33:31.043Z,12.00
2022-10-31T20:35:59.725Z,12.00
2022-10-31T20:38:28.003Z,12.00
2022-10-31T20:41:01.633Z,11.90
2022-10-31T20:43:30.041Z,11.90
2022-10-31T20:46:01.788Z,11.80
2022-10-31T20:48:31.735Z,11.80
2022-10-31T20:51:01.572Z,11.70
2022-10-31T20:53:30.095Z,11.70
2022-10-31T20:56:07.464Z,11.60
2022-10-31T20:58:36.739Z,11.60
2022-10-31T21:01:05.845Z,11.50
2022-10-31T21:03:36.723Z,11.50
2022-10-31T21:06:07.537Z,11.50
2022-10-31T21:08:36.253Z,11.50
2022-10-31T21:11:09.130Z,11.40
2022-10-31T21:13:40.715Z,11.30
2022-10-31T21:16:10.952Z,11.40
2022-10-31T21:18:42.155Z,11.40
2022-10-31T21:21:11.598Z,11.30
2022-10-31T21:23:44.127Z,11.30
2022-10-31T21:26:14.687Z,11.40
2022-10-31T21:28:43.248Z,11.60
2022-10-31T21:31:14.165Z,11.70
2022-10-31T21:33:47.671Z,11.70
2022-10-31T21:36:16.347Z,11.80
2022-10-31T21:38:45.217Z,11.80
2022-10-31T21:41:15.996Z,11.80
2022-10-31T21:43:45.855Z,11.80
2022-10-31T21:46:16.157Z,11.60
2022-10-31T21:48:46.422Z,11.60
2022-10-31T21:51:16.413Z,11.50
2022-10-31T21:54:02.658Z,11.50
2022-10-31T21:56:31.360Z,11.50
2022-10-31T21:58:59.912Z,11.40
2022-10-31T22:01:30.203Z,11.30
2022-10-31T22:04:01.320Z,11.30
2022-10-31T22:06:31.041Z,11.40
2022-10-31T22:09:00.813Z,11.40
2022-10-31T22:11:29.410Z,11.40
2022-10-31T22:14:00.096Z,11.40
2022-10-31T22:16:30.266Z,11.30
2022-10-31T22:19:05.224Z,11.30
2022-10-31T22:21:38.775Z,11.40
2022-10-31T22:24:07.957Z,11.40
2022-10-31T22:26:36.901Z,11.30
2022-10-31T22:29:07.180Z,11.30
2022-10-31T22:31:38.606Z,11.20
2022-10-31T22:34:09.213Z,11.20
2022-10-31T22:36:38.196Z,11.10
2022-10-31T22:39:07.239Z,11.10
2022-10-31T22:41:39.600Z,11.10
2022-10-31T22:44:08.183Z,11.00
2022-10-31T22:46:39.150Z,11.00
2022-10-31T22:49:10.240Z,11.10
2022-10-31T22:51:40.301Z,11.00
2022-10-31T22:54:12.764Z,11.00
2022-10-31T22:56:41.542Z,11.00
2022-10-31T22:59:12.434Z,11.00
2022-10-31T23:01:41.156Z,11.00
2022-10-31T23:04:13.724Z,11.10
2022-10-31T23:06:42.116Z,11.10
2022-10-31T23:09:14.020Z,11.00
2022-10-31T23:11:42.667Z,11.10
2022-10-31T23:14:14.005Z,11.10
2022-10-31T23:16:45.530Z,11.10
2022-10-31T23:19:19.494Z,11.00
2022-10-31T23:21:59.972Z,11.00
2022-10-31T23:24:33.088Z,11.10
2022-10-31T23:27:10.711Z,11.10
2022-10-31T23:29:48.726Z,11.00
2022-10-31T23:32:20.680Z,11.00
2022-10-31T23:34:51.617Z,11.00
2022-10-31T23:37:21.627Z,11.00
2022-10-31T23:39:50.048Z,11.00
2022-10-31T23:42:18.749Z,11.00
2022-10-31T23:44:47.356Z,11.00
2022-10-31T23:47:15.897Z,11.00
2022-10-31T23:49:44.121Z,11.00
2022-10-31T23:52:14.350Z,11.00
2022-10-31T23:54:42.743Z,11.10
2022-10-31T23:57:17.994Z,11.00
2022-10-31T23:59:46.591Z,10.90
